CDG weather

Charles de Gaulle International Airport
Paris, Île-de-France, France

Public forecast

Using degrees Celsius for public forecast. Weather courtesy of forecast.io.

METAR (pilot weather report)

Retrieved 2017/04/24 09:00 UTC (13 minutes ago):

LFPG 240900Z 02005KT 310V050 CAVOK 12/02 Q1018 NOSIG

TAF (pilot weather forecast)

Retrieved 2017/04/24 06:21 UTC (3 hours ago):

TAF LFPG 240500Z 2406/2512 35005KT CAVOK PROB40 TEMPO 2503/2508 BKN012 TX17/2415Z TN07/2502Z